This is the latest recevied weather packets stored in our database for station/object N7CW. If no packets are shown the sender has not sent any weather packets the latest 10 day(s).
| Time | Temp. | Humidity | Pressure | Rain* | Wind** | Luminosity | Snow |
|---|---|---|---|---|---|---|---|
| 1777516454 | 15.56° C | 24% | 1016.8 hPa | 0 mm | - | 0 W/m² | - |
| 1777516149 | 16.11° C | 24% | 1017 hPa | 0 mm | - | 0 W/m² | - |
| 1777515847 | 16.11° C | 24% | 1017 hPa | 0 mm | - | 1 W/m² | - |
| 1777515543 | 16.11° C | 23% | 1016.8 hPa | 0 mm | - | 2 W/m² | - |
| 1777515241 | 16.67° C | 23% | 1016.6 hPa | 0 mm | - | 3 W/m² | - |
| 1777514936 | 16.67° C | 22% | 1016.5 hPa | 0 mm | - | 6 W/m² | - |
| 1777514633 | 16.67° C | 22% | 1016.8 hPa | 0 mm | - | 10 W/m² | - |
| 1777514330 | 16.67° C | 22% | 1016.8 hPa | 0 mm | - | 15 W/m² | - |
| 1777514027 | 17.22° C | 21% | 1016.7 hPa | 0 mm | - | 23 W/m² | - |
| 1777512813 | 17.78° C | 20% | 1016.4 hPa | 0 mm | - | 49 W/m² | - |
| 1777512207 | 17.78° C | 20% | 1016.5 hPa | 0 mm | - | 50 W/m² | - |
| 1777511904 | 17.78° C | 20% | 1016.6 hPa | 0 mm | - | 69 W/m² | - |
| 1777509175 | 18.89° C | 19% | 1016.6 hPa | 0 mm | - | 140 W/m² | - |
| 1777508871 | 18.89° C | 19% | 1016.5 hPa | 0 mm | - | 153 W/m² | - |
| 1777508568 | 19.44° C | 19% | 1016.7 hPa | 0 mm | - | 201 W/m² | - |
| 1777501290 | 21.11° C | 15% | 1016.8 hPa | 0 mm | - | 578 W/m² | - |
| 1777493710 | 18.89° C | 16% | 1018.1 hPa | 0 mm | - | 799 W/m² | - |
| 1777490980 | 20.56° C | 17% | 1018.4 hPa | 0 mm | - | 822 W/m² | - |
| 1777490676 | 20° C | 18% | 1018.4 hPa | 0 mm | - | 823 W/m² | - |
| 1777490372 | 20° C | 18% | 1018.4 hPa | 0 mm | - | 825 W/m² | - |
| 1777489767 | 19.44° C | 16% | 1018.6 hPa | 0 mm | - | 823 W/m² | - |
| 1777487951 | 18.89° C | 22% | 1018.7 hPa | 0 mm | - | 807 W/m² | - |
| 1777487345 | 18.33° C | 23% | 1019.1 hPa | 0 mm | - | 799 W/m² | - |
| 1777486738 | 17.22° C | 24% | 1019.3 hPa | 0 mm | - | 786 W/m² | - |
| 1777486436 | 17.78° C | 24% | 1019.2 hPa | 0 mm | - | 785 W/m² | - |
* Rain latest hour (hover to see other rain measurements)
** Current wind speed in m/s (hover to see current wind gust speed)